Time;durP1;ratioP1;P1;durP2;ratioP2;P2;SDS_P1;SDS_P2;PMS_P1;PMS_P2;Temp;Humidity;BMP_temperature;BMP_pressure;BME280_temperature;BME280_humidity;BME280_pressure;Samples;Min_cycle;Max_cycle;Signal;HPM_P1;HPM_P2
2023/08/11 00:00:25;;;;;;;7.07;2.17;;;;;;;10.97;100.00;101550.09;5003847;28;20072;-71
2023/08/11 00:02:52;;;;;;;4.22;1.95;;;;;;;10.93;100.00;101543.38;5004475;28;20092;-71
2023/08/11 00:05:19;;;;;;;5.63;1.93;;;;;;;10.91;100.00;101547.16;5004486;28;20025;-71
2023/08/11 00:07:45;;;;;;;9.35;1.98;;;;;;;10.85;100.00;101537.06;4987418;28;20485;-71
2023/08/11 00:10:12;;;;;;;6.85;2.60;;;;;;;10.82;100.00;101534.69;4987673;28;20014;-71
2023/08/11 00:12:39;;;;;;;4.38;2.15;;;;;;;10.80;100.00;101534.00;5002440;28;20481;-71
2023/08/11 00:15:06;;;;;;;4.55;1.63;;;;;;;10.75;100.00;101532.59;5004297;28;20050;-71
2023/08/11 00:17:32;;;;;;;6.00;2.65;;;;;;;10.74;100.00;101540.75;5004896;28;20137;-71
2023/08/11 00:19:57;;;;;;;8.15;2.55;;;;;;;10.71;100.00;101544.53;5003574;28;20121;-70
2023/08/11 00:22:23;;;;;;;5.07;2.03;;;;;;;10.70;100.00;101550.88;5004694;28;20037;-72
2023/08/11 00:24:49;;;;;;;7.20;2.90;;;;;;;10.69;100.00;101559.88;5004321;28;20121;-71
2023/08/11 00:27:18;;;;;;;5.57;2.25;;;;;;;10.65;100.00;101547.81;4987139;28;20481;-71
2023/08/11 00:29:43;;;;;;;3.47;1.98;;;;;;;10.61;100.00;101553.59;5003472;28;20030;-71
2023/08/11 00:32:08;;;;;;;3.93;2.00;;;;;;;10.60;100.00;101554.53;4987635;28;20060;-71
2023/08/11 00:34:34;;;;;;;11.47;2.43;;;;;;;10.58;100.00;101549.34;4990091;28;20026;-71
2023/08/11 00:36:59;;;;;;;14.77;2.27;;;;;;;10.56;100.00;101556.69;4989881;28;20041;-72
2023/08/11 00:39:25;;;;;;;5.97;2.10;;;;;;;10.52;100.00;101556.09;4990599;28;20021;-73
2023/08/11 00:41:50;;;;;;;3.72;2.03;;;;;;;10.48;100.00;101557.38;4993783;28;20532;-74
2023/08/11 00:44:16;;;;;;;5.90;1.80;;;;;;;10.44;100.00;101556.00;4990260;28;20215;-74
2023/08/11 00:46:43;;;;;;;3.58;1.67;;;;;;;10.38;100.00;101551.22;4990320;28;20401;-73
2023/08/11 00:49:09;;;;;;;6.05;1.70;;;;;;;10.35;100.00;101556.84;4990321;28;20029;-71
2023/08/11 00:51:35;;;;;;;;;;;;;;;10.36;100.00;101555.84;4974694;28;20029;-71
2023/08/11 00:54:01;;;;;;;;;;;;;;;10.35;100.00;101564.84;5007965;28;19917;-71
2023/08/11 00:56:26;;;;;;;4.43;1.52;;;;;;;10.33;100.00;101556.97;4990370;28;20015;-72
2023/08/11 00:58:53;;;;;;;8.90;1.67;;;;;;;10.25;100.00;101556.78;5006545;28;20038;-72
2023/08/11 01:01:18;;;;;;;;;;;;;;;10.26;100.00;101566.50;4990672;28;20022;-72
2023/08/11 01:03:47;;;;;;;3.10;1.50;;;;;;;10.26;100.00;101568.31;5007640;28;19940;-72
2023/08/11 01:06:39;;;;;;;4.50;1.70;;;;;;;10.24;100.00;101576.47;5006348;28;20028;-71
2023/08/11 01:09:24;;;;;;;2.45;1.67;;;;;;;10.24;100.00;101570.28;5004555;28;20030;-73
2023/08/11 01:12:02;;;;;;;6.88;1.88;;;;;;;10.17;100.00;101564.66;5003255;28;20444;-74
2023/08/11 01:14:38;;;;;;;7.05;2.03;;;;;;;10.17;100.00;101570.00;4994496;28;20388;-72
2023/08/11 01:17:05;;;;;;;2.05;1.60;;;;;;;10.15;100.00;101567.47;5007454;28;20104;-72
2023/08/11 01:19:35;;;;;;;7.43;1.65;;;;;;;10.13;100.00;101572.09;4990092;28;20029;-71
2023/08/11 01:22:07;;;;;;;3.72;1.95;;;;;;;10.12;100.00;101566.91;4989715;28;20304;-72
2023/08/11 01:24:33;;;;;;;5.22;1.80;;;;;;;10.09;100.00;101568.03;5005605;28;20463;-72
2023/08/11 01:26:58;;;;;;;6.35;2.25;;;;;;;10.10;100.00;101564.38;5006212;28;20437;-72
2023/08/11 01:29:25;;;;;;;3.72;1.70;;;;;;;10.09;100.00;101559.16;4989626;28;20073;-72
2023/08/11 01:31:50;;;;;;;;;;;;;;;10.09;100.00;101554.69;4990136;28;20053;-74
2023/08/11 01:34:16;;;;;;;5.40;1.48;;;;;;;10.07;100.00;101545.97;4989534;28;19952;-74
2023/08/11 01:36:41;;;;;;;8.43;1.67;;;;;;;10.01;100.00;101546.53;5005533;28;20270;-74
2023/08/11 01:39:09;;;;;;;3.33;1.38;;;;;;;9.99;100.00;101547.66;4973436;28;20048;-71
2023/08/11 01:41:35;;;;;;;2.17;1.38;;;;;;;10.00;100.00;101547.53;4989523;28;20480;-71
2023/08/11 01:44:01;;;;;;;6.38;2.17;;;;;;;9.99;100.00;101550.31;5005068;28;20641;-72
2023/08/11 01:46:28;;;;;;;3.00;1.58;;;;;;;9.99;100.00;101543.16;5005469;28;20026;-72
2023/08/11 01:48:56;;;;;;;5.30;1.60;;;;;;;9.95;100.00;101539.09;5003223;28;20034;-71
2023/08/11 01:51:23;;;;;;;5.00;1.20;;;;;;;9.87;100.00;101530.94;5005757;28;20048;-72
2023/08/11 01:53:50;;;;;;;4.35;1.35;;;;;;;9.86;100.00;101530.09;5002271;28;20416;-72
2023/08/11 01:56:16;;;;;;;6.05;2.80;;;;;;;9.87;100.00;101538.94;4989114;28;20037;-72
2023/08/11 01:58:42;;;;;;;3.15;1.65;;;;;;;9.85;100.00;101533.72;5005452;28;20029;-71
2023/08/11 02:01:07;;;;;;;3.03;1.30;;;;;;;9.86;100.00;101542.59;4997065;28;20081;-72
2023/08/11 02:03:33;;;;;;;4.05;1.85;;;;;;;9.85;100.00;101541.72;4988896;28;20140;-72
2023/08/11 02:05:59;;;;;;;3.75;1.30;;;;;;;9.84;100.00;101548.06;4988931;28;20503;-72
2023/08/11 02:08:25;;;;;;;3.60;1.33;;;;;;;9.84;100.00;101536.56;4991926;28;20026;-72
2023/08/11 02:10:52;;;;;;;3.35;1.45;;;;;;;9.84;100.00;101531.22;4989122;28;20037;-72
2023/08/11 02:13:18;;;;;;;3.38;1.25;;;;;;;9.80;100.00;101533.31;4988559;28;20091;-72
2023/08/11 02:15:44;;;;;;;1.40;1.27;;;;;;;9.80;100.00;101529.81;5004943;28;20116;-71
2023/08/11 02:18:10;;;;;;;2.90;1.20;;;;;;;9.74;100.00;101525.88;4988845;28;20040;-72
2023/08/11 02:20:35;;;;;;;3.47;1.20;;;;;;;9.73;100.00;101526.84;4988972;28;20389;-72
2023/08/11 02:23:01;;;;;;;4.25;1.15;;;;;;;9.71;100.00;101521.63;4988642;28;20041;-72
2023/08/11 02:25:26;;;;;;;3.90;1.15;;;;;;;9.73;100.00;101530.34;4988368;28;20025;-72
2023/08/11 02:27:52;;;;;;;1.53;0.90;;;;;;;9.71;100.00;101526.13;5004960;28;20033;-72
2023/08/11 02:30:18;;;;;;;3.50;1.05;;;;;;;9.70;100.00;101519.97;4990317;28;20026;-72
2023/08/11 02:32:47;;;;;;;2.10;1.23;;;;;;;9.70;100.00;101519.97;4988553;28;20038;-72
2023/08/11 02:35:17;;;;;;;1.80;1.02;;;;;;;9.69;100.00;101512.97;4988480;28;20045;-74
2023/08/11 02:37:42;;;;;;;8.57;1.48;;;;;;;9.59;100.00;101504.09;4988587;28;20053;-74
2023/08/11 02:40:09;;;;;;;4.07;1.17;;;;;;;9.63;100.00;101513.50;4988735;28;20069;-74
2023/08/11 02:42:38;;;;;;;2.70;1.20;;;;;;;9.66;100.00;101521.22;5006016;28;20040;-74
2023/08/11 02:45:08;;;;;;;5.97;1.17;;;;;;;9.62;100.00;101519.81;5004209;28;20116;-71
2023/08/11 02:47:34;;;;;;;2.30;1.20;;;;;;;9.59;100.00;101503.25;5004715;28;20052;-72
2023/08/11 02:50:00;;;;;;;7.13;1.08;;;;;;;9.58;100.00;101509.56;4989756;28;20507;-72
2023/08/11 02:52:26;;;;;;;3.07;1.43;;;;;;;9.57;100.00;101507.88;5005921;28;20040;-72
2023/08/11 02:54:51;;;;;;;1.88;1.00;;;;;;;9.55;100.00;101508.00;4987247;28;20640;-71
2023/08/11 02:57:16;;;;;;;3.17;1.10;;;;;;;9.56;100.00;101511.53;4988321;28;20381;-71
2023/08/11 02:59:44;;;;;;;5.53;1.40;;;;;;;9.50;100.00;101500.44;4988173;28;20056;-72
2023/08/11 03:02:10;;;;;;;3.67;1.40;;;;;;;9.50;100.00;101494.25;4988088;28;20029;-72
2023/08/11 03:04:36;;;;;;;3.83;1.33;;;;;;;9.51;100.00;101490.63;4987852;28;20040;-71
2023/08/11 03:07:05;;;;;;;5.78;1.30;;;;;;;9.51;100.00;101488.78;4988038;28;20076;-72
2023/08/11 03:09:31;;;;;;;3.63;1.58;;;;;;;9.49;100.00;101496.06;4988105;28;20029;-72
2023/08/11 03:11:56;;;;;;;4.45;1.48;;;;;;;9.46;100.00;101484.84;4988065;28;20026;-72
2023/08/11 03:14:22;;;;;;;5.77;1.43;;;;;;;9.52;100.00;101497.63;4988009;28;20037;-72
2023/08/11 03:16:47;;;;;;;5.17;1.13;;;;;;;9.56;100.00;101501.69;4987989;28;20125;-72
2023/08/11 03:19:13;;;;;;;4.25;1.95;;;;;;;9.61;100.00;101510.13;4993712;28;20485;-72
2023/08/11 03:21:39;;;;;;;2.87;1.50;;;;;;;9.65;100.00;101513.38;5005928;28;20029;-72
2023/08/11 03:24:04;;;;;;;6.47;1.17;;;;;;;9.74;100.00;101517.88;4987924;28;20411;-72
2023/08/11 03:26:30;;;;;;;3.65;1.73;;;;;;;9.84;100.00;101533.88;4987686;28;20186;-72
2023/08/11 03:28:56;;;;;;;4.07;1.52;;;;;;;9.85;100.00;101532.88;5004470;28;20041;-72
2023/08/11 03:31:22;;;;;;;4.22;1.65;;;;;;;9.94;100.00;101526.72;5004419;28;20067;-72
2023/08/11 03:33:50;;;;;;;5.32;2.33;;;;;;;10.03;100.00;101538.41;4987796;28;20454;-72
2023/08/11 03:36:16;;;;;;;4.83;2.37;;;;;;;10.14;100.00;101533.75;4987396;28;20068;-72
2023/08/11 03:38:43;;;;;;;3.75;1.80;;;;;;;10.25;100.00;101569.28;4988012;28;20113;-72
2023/08/11 03:41:09;;;;;;;;;;;;;;;10.22;100.00;101556.22;5004561;28;20022;-72
2023/08/11 03:43:36;;;;;;;4.15;1.52;;;;;;;10.31;100.00;101534.91;4974076;28;19917;-72
2023/08/11 03:46:01;;;;;;;4.37;1.50;;;;;;;10.48;100.00;101536.00;5005146;28;20041;-72
2023/08/11 03:48:27;;;;;;;4.43;1.53;;;;;;;10.61;100.00;101532.22;4987868;28;20030;-72
2023/08/11 03:50:52;;;;;;;3.60;1.43;;;;;;;10.69;100.00;101543.00;4987833;28;20398;-72
2023/08/11 03:53:17;;;;;;;2.43;1.47;;;;;;;10.66;100.00;101536.13;5003581;28;20477;-72
2023/08/11 03:55:45;;;;;;;;;;;;;;;10.64;100.00;101530.09;4987795;28;20022;-72
2023/08/11 03:58:13;;;;;;;5.15;1.52;;;;;;;10.71;100.00;101519.69;4993665;28;19913;-72
2023/08/11 04:00:40;;;;;;;5.13;2.05;;;;;;;10.85;100.00;101531.72;4987830;28;20069;-72
2023/08/11 04:03:09;;;;;;;3.63;1.80;;;;;;;10.96;100.00;101540.41;4986415;28;20061;-72
2023/08/11 04:05:36;;;;;;;2.23;1.50;;;;;;;11.06;100.00;101559.06;5003458;28;20030;-71
2023/08/11 04:08:01;;;;;;;;;;;;;;;11.14;100.00;101574.38;5009033;28;20669;-72
2023/08/11 04:10:26;;;;;;;;;;;;;;;11.09;100.00;101552.59;5008004;28;19921;-72
2023/08/11 04:12:52;;;;;;;9.20;2.03;;;;;;;11.18;100.00;101565.09;5007481;28;20390;-72
2023/08/11 04:15:18;;;;;;;4.10;2.00;;;;;;;11.21;100.00;101570.13;5008183;28;20277;-72
2023/08/11 04:17:43;;;;;;;4.47;2.10;;;;;;;11.29;100.00;101572.94;4991197;28;20489;-72
2023/08/11 04:20:13;;;;;;;4.27;1.37;;;;;;;11.39;100.00;101584.41;5002538;28;20124;-72
2023/08/11 04:22:40;;;;;;;7.57;1.70;;;;;;;11.44;100.00;101591.16;5007461;28;20036;-72
2023/08/11 04:25:09;;;;;;;5.75;1.40;;;;;;;11.45;100.00;101584.81;5006816;28;20072;-72
2023/08/11 04:27:35;;;;;;;6.75;2.58;;;;;;;11.36;100.00;101546.44;4975060;28;20374;-72
2023/08/11 04:30:02;;;;;;;10.02;3.42;;;;;;;11.41;100.00;101523.59;4990921;28;20034;-72
2023/08/11 04:32:28;;;;;;;5.80;1.92;;;;;;;11.50;100.00;101500.50;4974362;28;20029;-72
2023/08/11 04:34:53;;;;;;;3.83;2.00;;;;;;;11.59;100.00;101490.72;5006702;28;20037;-72
2023/08/11 04:37:19;;;;;;;4.70;2.53;;;;;;;11.73;100.00;101511.59;4990952;28;20030;-72
2023/08/11 04:39:44;;;;;;;2.63;1.40;;;;;;;11.76;100.00;101516.66;5008276;28;20088;-72
2023/08/11 04:42:11;;;;;;;5.28;1.90;;;;;;;11.84;100.00;101506.00;4990662;28;20767;-73
2023/08/11 04:44:36;;;;;;;3.97;1.75;;;;;;;11.89;100.00;101516.28;4989924;28;20132;-72
2023/08/11 04:47:02;;;;;;;8.40;1.87;;;;;;;11.82;100.00;101483.94;5007990;28;20125;-73
2023/08/11 04:49:28;;;;;;;8.70;2.00;;;;;;;11.89;100.00;101464.63;4990705;28;20120;-72
2023/08/11 04:51:53;;;;;;;5.65;2.10;;;;;;;12.03;100.00;101483.66;4990659;28;20121;-72
2023/08/11 04:54:19;;;;;;;4.13;1.50;;;;;;;12.14;100.00;101514.69;5002423;28;20034;-72
2023/08/11 04:56:46;;;;;;;6.80;2.67;;;;;;;12.17;100.00;101524.25;4989949;28;20105;-73
2023/08/11 04:59:12;;;;;;;6.18;1.60;;;;;;;12.17;100.00;101513.53;4990241;28;20958;-72
2023/08/11 05:01:37;;;;;;;4.95;1.85;;;;;;;12.20;100.00;101502.53;4990476;28;20039;-72
2023/08/11 05:04:04;;;;;;;11.80;1.90;;;;;;;12.23;100.00;101484.31;5013221;28;20037;-72
2023/08/11 05:06:29;;;;;;;6.55;1.77;;;;;;;12.31;100.00;101482.69;5008624;28;20017;-72
2023/08/11 05:08:55;;;;;;;7.60;1.57;;;;;;;12.40;100.00;101465.69;4994186;28;20051;-72
2023/08/11 05:11:20;;;;;;;7.77;3.07;;;;;;;12.50;100.00;101462.91;4996789;28;20124;-72
2023/08/11 05:13:45;;;;;;;6.03;1.83;;;;;;;12.59;100.00;101465.47;4977947;28;20069;-72
2023/08/11 05:16:11;;;;;;;4.53;1.40;;;;;;;12.66;100.00;101477.25;5009241;28;20367;-72
2023/08/11 05:18:36;;;;;;;4.43;1.67;;;;;;;12.66;100.00;101482.59;4991018;28;20037;-72
2023/08/11 05:21:05;;;;;;;5.03;1.97;;;;;;;12.64;100.00;101471.22;4989844;28;20034;-72
2023/08/11 05:23:31;;;;;;;3.50;1.52;;;;;;;12.74;100.00;101446.16;5006769;28;20341;-72
2023/08/11 05:25:56;;;;;;;6.03;1.50;;;;;;;12.80;100.00;101435.63;4989386;28;20382;-72
2023/08/11 05:28:22;;;;;;;8.73;2.60;;;;;;;12.87;100.00;101425.09;5007046;28;20045;-72
2023/08/11 05:30:48;;;;;;;10.07;1.70;;;;;;;12.90;100.00;101408.72;5004966;28;20109;-73
2023/08/11 05:33:13;;;;;;;8.07;1.75;;;;;;;12.96;100.00;101404.53;5007791;28;20401;-72
2023/08/11 05:35:39;;;;;;;4.30;2.20;;;;;;;13.02;100.00;101390.50;4988733;28;20029;-72
2023/08/11 05:38:05;;;;;;;5.97;1.88;;;;;;;13.09;100.00;101403.09;5005956;28;20042;-72
2023/08/11 05:40:31;;;;;;;4.35;2.15;;;;;;;13.03;100.00;101376.91;5007499;28;20056;-72
2023/08/11 05:42:56;;;;;;;3.78;1.65;;;;;;;13.17;100.00;101388.03;4994464;28;20576;-72
2023/08/11 05:45:22;;;;;;;6.15;1.95;;;;;;;13.21;100.00;101394.75;5009105;28;20040;-72
2023/08/11 05:47:47;;;;;;;8.63;2.00;;;;;;;13.28;100.00;101371.66;5006438;28;20519;-72
2023/08/11 05:50:13;;;;;;;10.17;1.90;;;;;;;13.27;100.00;101367.25;4995034;28;20022;-72
2023/08/11 05:52:38;;;;;;;6.13;1.75;;;;;;;13.30;100.00;101377.69;5008377;28;20460;-72
2023/08/11 05:55:05;;;;;;;7.25;1.80;;;;;;;13.35;100.00;101351.22;5008371;28;20084;-72
2023/08/11 05:57:30;;;;;;;3.53;1.80;;;;;;;13.48;100.00;101354.22;5006184;28;20038;-72
2023/08/11 05:59:56;;;;;;;5.83;2.23;;;;;;;13.55;100.00;101361.63;5006663;28;20030;-72
2023/08/11 06:02:21;;;;;;;5.25;1.90;;;;;;;13.61;100.00;101360.97;5008643;28;20316;-72
2023/08/11 06:04:47;;;;;;;4.80;1.90;;;;;;;13.58;100.00;101318.34;5008313;28;20033;-71
2023/08/11 06:07:13;;;;;;;9.90;3.35;;;;;;;13.67;100.00;101303.94;5007324;28;20029;-71
2023/08/11 06:09:39;;;;;;;2.37;1.70;;;;;;;13.72;100.00;101247.94;5006216;28;20102;-71
2023/08/11 06:12:04;;;;;;;5.55;2.47;;;;;;;13.75;100.00;101226.13;5008938;28;20061;-71
2023/08/11 06:14:30;;;;;;;4.07;1.63;;;;;;;13.81;100.00;101198.56;5007807;28;20464;-71
2023/08/11 06:16:55;;;;;;;6.40;1.67;;;;;;;13.92;100.00;101195.53;5004612;28;20378;-71
2023/08/11 06:19:20;;;;;;;5.10;1.70;;;;;;;14.03;100.00;101228.38;5008178;28;20041;-71
2023/08/11 06:21:46;;;;;;;6.23;2.63;;;;;;;14.08;100.00;101263.59;5007689;28;20379;-71
2023/08/11 06:24:11;;;;;;;6.57;1.80;;;;;;;13.99;100.00;101201.03;4990252;28;20034;-71
2023/08/11 06:26:37;;;;;;;12.68;3.25;;;;;;;14.04;100.00;101171.81;5003720;28;20131;-71
2023/08/11 06:29:04;;;;;;;6.93;2.27;;;;;;;14.15;100.00;101151.81;5005805;28;20042;-71
2023/08/11 06:31:30;;;;;;;3.40;2.05;;;;;;;14.20;100.00;101122.56;5007803;28;20412;-71
2023/08/11 06:33:55;;;;;;;;;;;;;;;14.27;100.00;101058.25;5007988;28;20061;-71
2023/08/11 06:36:20;;;;;;;;;;;;;;;14.38;100.00;100998.75;4989832;28;20540;-71
2023/08/11 06:38:46;;;;;;;13.47;2.20;;;;;;;14.39;100.00;100959.28;4992098;28;20380;-71
2023/08/11 06:41:11;;;;;;;5.18;2.17;;;;;;;14.44;100.00;100968.44;5007714;28;20045;-71
2023/08/11 06:43:38;;;;;;;8.47;1.50;;;;;;;14.48;100.00;100921.41;4989613;28;20025;-71
2023/08/11 06:46:04;;;;;;;3.88;1.42;;;;;;;14.56;100.00;100907.06;4987660;28;20045;-71
2023/08/11 06:48:29;;;;;;;3.63;1.80;;;;;;;14.75;100.00;100897.66;5007494;28;20104;-71
2023/08/11 06:50:56;;;;;;;6.80;1.80;;;;;;;14.84;100.00;100904.56;5005581;28;20372;-71
2023/08/11 06:53:22;;;;;;;5.88;2.00;;;;;;;14.83;100.00;100886.78;5006892;28;20496;-71
2023/08/11 06:55:47;;;;;;;4.20;1.57;;;;;;;14.77;100.00;100850.75;5004410;28;20061;-71
2023/08/11 06:58:12;;;;;;;5.63;1.30;;;;;;;15.06;100.00;100869.69;4989499;28;20120;-71
2023/08/11 07:00:38;;;;;;;5.27;1.90;;;;;;;15.12;100.00;100836.66;5009232;28;20054;-71
2023/08/11 07:03:04;;;;;;;7.07;1.93;;;;;;;15.25;100.00;100825.22;4995503;28;20374;-72
2023/08/11 07:05:30;;;;;;;4.10;1.73;;;;;;;15.25;100.00;100826.06;5005654;28;20060;-72
2023/08/11 07:07:55;;;;;;;6.38;1.65;;;;;;;15.05;100.00;100798.94;5007209;28;20053;-72
2023/08/11 07:10:21;;;;;;;5.45;1.58;;;;;;;15.27;100.00;100920.00;5005135;28;20510;-72
2023/08/11 07:12:46;;;;;;;9.30;1.50;;;;;;;15.37;100.00;100890.94;5005294;28;20454;-71
2023/08/11 07:15:12;;;;;;;7.23;1.70;;;;;;;15.32;100.00;100855.72;5004645;28;20490;-72
2023/08/11 07:17:37;;;;;;;3.47;1.70;;;;;;;15.32;100.00;100885.31;5005348;28;20057;-72
2023/08/11 07:20:03;;;;;;;6.93;1.60;;;;;;;15.33;100.00;100871.63;4994109;28;20037;-72
2023/08/11 07:22:28;;;;;;;8.55;2.42;;;;;;;15.35;100.00;100922.56;5006600;28;20025;-71
2023/08/11 07:24:54;;;;;;;10.47;2.13;;;;;;;15.41;100.00;100972.94;5004735;28;20092;-72
2023/08/11 07:27:19;;;;;;;8.27;2.00;;;;;;;15.56;100.00;100984.50;5006674;28;20030;-72
2023/08/11 07:29:44;;;;;;;5.37;1.77;;;;;;;15.62;100.00;100932.59;5005162;28;20300;-72
2023/08/11 07:32:10;;;;;;;4.67;1.77;;;;;;;15.69;100.00;101001.84;5005043;28;20071;-71
2023/08/11 07:34:36;;;;;;;5.47;2.07;;;;;;;16.02;100.00;101064.16;4987212;28;20033;-71
2023/08/11 07:37:03;;;;;;;7.75;1.88;;;;;;;16.17;100.00;101018.28;4972904;28;20088;-71
2023/08/11 07:39:28;;;;;;;5.72;1.63;;;;;;;15.91;100.00;100960.47;5005155;28;20076;-71
2023/08/11 07:41:54;;;;;;;11.50;2.20;;;;;;;15.86;100.00;101000.59;4990575;28;20030;-72
2023/08/11 07:44:19;;;;;;;8.07;2.37;;;;;;;15.90;100.00;101143.75;5010908;28;20030;-72
2023/08/11 07:46:45;;;;;;;5.55;2.03;;;;;;;15.95;100.00;101131.38;4989914;28;20468;-72
2023/08/11 07:49:10;;;;;;;7.00;1.93;;;;;;;15.86;100.00;101067.91;4995263;28;20050;-72
2023/08/11 07:51:36;;;;;;;7.73;2.27;;;;;;;15.93;100.00;101119.97;5010729;28;20076;-72
2023/08/11 07:54:01;;;;;;;7.03;1.80;;;;;;;16.01;100.00;101175.56;4991058;28;20029;-72
2023/08/11 07:56:27;;;;;;;10.33;2.20;;;;;;;16.16;100.00;101218.66;5008722;28;20062;-71
2023/08/11 07:58:53;;;;;;;6.85;2.22;;;;;;;16.27;100.00;101225.41;4994215;28;20076;-72
2023/08/11 08:01:18;;;;;;;5.97;1.92;;;;;;;16.54;100.00;101258.91;5010223;28;20124;-72
2023/08/11 08:03:45;;;;;;;4.88;1.70;;;;;;;16.68;100.00;101264.25;5009872;28;20045;-72
2023/08/11 08:06:11;;;;;;;4.70;1.98;;;;;;;16.69;100.00;101273.16;5010280;28;20034;-71
2023/08/11 08:08:36;;;;;;;8.32;2.00;;;;;;;16.80;100.00;101282.66;5010366;28;20222;-72
2023/08/11 08:11:02;;;;;;;9.37;2.37;;;;;;;16.82;100.00;101276.06;5008741;28;20073;-72
2023/08/11 08:13:31;;;;;;;7.97;2.72;;;;;;;16.60;100.00;101193.44;5011174;28;20412;-72
2023/08/11 08:15:57;;;;;;;4.72;2.42;;;;;;;16.71;100.00;101268.44;4998727;28;20029;-72
2023/08/11 08:18:22;;;;;;;14.35;2.45;;;;;;;16.49;100.00;101270.25;5009860;28;20034;-72
2023/08/11 08:20:47;;;;;;;6.13;2.27;;;;;;;16.61;100.00;101386.53;4987397;28;20342;-72
2023/08/11 08:23:13;;;;;;;5.03;2.13;;;;;;;16.67;100.00;101345.34;5008252;28;20040;-72
2023/08/11 08:25:39;;;;;;;6.13;2.10;;;;;;;16.78;100.00;101338.63;4991975;28;20496;-72
2023/08/11 08:28:05;;;;;;;;;;;;;;;16.57;100.00;101275.53;5008716;28;20042;-72
2023/08/11 08:30:30;;;;;;;9.27;2.38;;;;;;;16.51;100.00;101324.81;5008604;28;19920;-71
2023/08/11 08:32:56;;;;;;;5.80;2.70;;;;;;;16.58;100.00;101358.09;5009614;28;20564;-72
2023/08/11 08:35:21;;;;;;;7.20;2.70;;;;;;;16.74;100.00;101397.50;5007537;28;20033;-72
2023/08/11 08:37:46;;;;;;;7.97;3.20;;;;;;;16.80;100.00;101428.28;5008391;28;20036;-72
2023/08/11 08:40:12;;;;;;;10.07;2.37;;;;;;;16.73;100.00;101403.06;5011204;28;20528;-72
2023/08/11 08:42:38;;;;;;;6.93;3.03;;;;;;;16.79;100.00;101367.31;5009311;28;20413;-72
2023/08/11 08:45:04;;;;;;;11.02;3.40;;;;;;;16.90;100.00;101366.78;4997309;28;20037;-72
2023/08/11 08:47:31;;;;;;;;;;;;;;;16.74;100.00;101365.13;5012032;28;20660;-72
2023/08/11 08:49:58;;;;;;;5.35;2.78;;;;;;;16.90;100.00;101398.31;5007937;28;20004;-72
2023/08/11 08:52:24;;;;;;;5.72;2.92;;;;;;;16.98;100.00;101365.88;4993322;28;20033;-72
2023/08/11 08:54:50;;;;;;;5.28;2.90;;;;;;;17.06;100.00;101369.25;5005995;28;20623;-72
2023/08/11 08:57:17;;;;;;;;;;;;;;;17.05;100.00;101382.97;5008275;28;20756;-72
2023/08/11 08:59:42;;;;;;;7.03;3.08;;;;;;;17.14;100.00;101359.38;5007819;28;19916;-72
2023/08/11 09:02:10;;;;;;;8.23;4.00;;;;;;;17.40;100.00;101381.28;5007472;28;20034;-72
2023/08/11 09:04:36;;;;;;;11.48;3.83;;;;;;;17.29;100.00;101271.97;4990084;28;20029;-72
2023/08/11 09:07:01;;;;;;;5.57;2.78;;;;;;;17.32;100.00;101323.88;5007566;28;20052;-72
2023/08/11 09:09:30;;;;;;;8.05;3.60;;;;;;;17.53;100.00;101294.16;4990074;28;20029;-72
2023/08/11 09:11:56;;;;;;;7.20;2.90;;;;;;;17.71;100.00;101285.59;5007735;28;20468;-71
2023/08/11 09:14:22;;;;;;;;;;;;;;;17.65;100.00;101271.03;4990012;28;20505;-72
2023/08/11 09:16:49;;;;;;;5.50;2.92;;;;;;;17.89;100.00;101318.38;5007279;28;19941;-72
2023/08/11 09:19:15;;;;;;;6.55;3.35;;;;;;;17.73;100.00;101235.75;5007202;28;20029;-72
2023/08/11 09:21:44;;;;;;;13.15;4.05;;;;;;;17.72;100.00;101309.72;5007182;28;20038;-72
2023/08/11 09:24:11;;;;;;;11.45;4.18;;;;;;;17.98;100.00;101340.69;5007466;28;20037;-72
2023/08/11 09:26:40;;;;;;;5.63;3.10;;;;;;;18.15;100.00;101249.34;5006430;28;20161;-72
2023/08/11 09:29:05;;;;;;;8.18;3.75;;;;;;;17.92;100.00;101211.81;4996389;28;20029;-72
2023/08/11 09:31:31;;;;;;;7.10;3.27;;;;;;;18.10;100.00;101266.16;4989716;28;20057;-72
2023/08/11 09:33:56;;;;;;;9.63;3.17;;;;;;;18.59;100.00;101304.00;4990461;28;20021;-72
2023/08/11 09:36:21;;;;;;;11.20;4.83;;;;;;;18.61;100.00;101148.63;5005145;28;20037;-72
2023/08/11 09:38:48;;;;;;;8.37;3.77;;;;;;;18.68;100.00;101133.25;5009051;28;20025;-72
2023/08/11 09:41:14;;;;;;;10.57;4.30;;;;;;;18.24;100.00;101122.97;5006725;28;20041;-72
2023/08/11 09:43:49;;;;;;;;;;;;;;;18.75;100.00;101255.81;5005902;28;20108;-72
2023/08/11 09:46:15;;;;;;;7.68;3.53;;;;;;;18.90;100.00;101235.88;5006995;28;20727;-72
2023/08/11 09:48:40;;;;;;;12.67;5.47;;;;;;;18.83;100.00;101116.03;5014834;28;20038;-72
2023/08/11 09:51:10;;;;;;;12.52;4.03;;;;;;;18.50;100.00;101117.63;5006838;28;20080;-72
2023/08/11 09:53:40;;;;;;;9.20;4.97;;;;;;;18.46;100.00;101121.78;5006198;28;20042;-72
2023/08/11 09:56:06;;;;;;;9.60;3.75;;;;;;;18.47;100.00;101155.91;4994926;28;20030;-72
2023/08/11 09:58:37;;;;;;;6.32;3.35;;;;;;;18.82;100.00;101298.28;5007354;28;20045;-72
2023/08/11 10:01:04;;;;;;;11.30;3.65;;;;;;;18.78;100.00;101149.09;5006466;28;20400;-72
2023/08/11 10:03:36;;;;;;;10.45;4.50;;;;;;;18.67;100.00;101155.91;5008271;28;20024;-72
2023/08/11 10:06:04;;;;;;;9.07;3.70;;;;;;;18.49;100.00;101055.63;5005858;28;20037;-72
2023/08/11 10:08:31;;;;;;;5.07;3.35;;;;;;;18.71;100.00;101238.31;5003944;28;20044;-72
2023/08/11 10:10:57;;;;;;;6.40;3.22;;;;;;;18.73;100.00;101213.75;5005250;28;20030;-72
2023/08/11 10:13:28;;;;;;;9.95;3.50;;;;;;;19.21;100.00;101308.38;5007523;28;20026;-72
2023/08/11 10:15:55;;;;;;;5.63;3.30;;;;;;;19.31;100.00;101214.03;5007502;28;20052;-72
2023/08/11 10:18:20;;;;;;;10.07;3.75;;;;;;;19.08;100.00;101043.13;5006146;28;20025;-72
2023/08/11 10:20:50;;;;;;;4.90;3.17;;;;;;;19.21;100.00;101129.72;5006457;28;20022;-72
2023/08/11 10:23:17;;;;;;;8.90;3.15;;;;;;;18.79;100.00;101104.78;5006824;28;20026;-72
2023/08/11 10:25:43;;;;;;;6.72;3.53;;;;;;;18.93;100.00;101217.34;5006010;28;20026;-72
2023/08/11 10:28:11;;;;;;;8.25;4.03;;;;;;;19.21;100.00;101221.75;5005813;28;20114;-72
2023/08/11 10:30:36;;;;;;;6.05;3.13;;;;;;;19.07;100.00;101147.03;5005881;28;20037;-72
2023/08/11 10:33:03;;;;;;;6.30;3.40;;;;;;;19.32;100.00;101166.16;5006354;28;20034;-72
2023/08/11 10:35:49;;;;;;;7.63;3.35;;;;;;;19.34;100.00;101053.91;5006690;28;20287;-71
2023/08/11 10:38:33;;;;;;;10.55;3.33;;;;;;;19.23;100.00;101084.34;4993439;28;20132;-72
2023/08/11 10:41:08;;;;;;;6.35;3.20;;;;;;;19.17;100.00;101001.28;5002911;28;20075;-72
2023/08/11 10:43:40;;;;;;;5.70;3.13;;;;;;;19.32;100.00;101088.47;5004087;28;20029;-72
2023/08/11 10:46:26;;;;;;;8.65;3.38;;;;;;;19.66;100.00;101173.16;5006504;28;20069;-72
2023/08/11 10:48:54;;;;;;;9.27;3.35;;;;;;;19.71;100.00;101029.00;5002392;28;20040;-72
2023/08/11 10:51:26;;;;;;;4.43;2.72;;;;;;;19.63;100.00;100951.50;5006034;28;20602;-72
2023/08/11 10:53:54;;;;;;;10.48;3.67;;;;;;;19.73;100.00;100940.22;5002551;28;20026;-72
2023/08/11 10:56:31;;;;;;;10.45;2.92;;;;;;;19.90;100.00;101028.09;5005293;28;20062;-72
2023/08/11 10:59:25;;;;;;;6.13;3.38;;;;;;;19.92;100.00;100984.50;5002132;28;20061;-72
2023/08/11 11:01:55;;;;;;;7.03;3.33;;;;;;;19.88;100.00;101087.06;5000391;28;20033;-72
2023/08/11 11:04:22;;;;;;;7.72;3.15;;;;;;;19.66;100.00;100951.06;5004995;28;20065;-72
2023/08/11 11:06:50;;;;;;;7.53;3.13;;;;;;;20.14;100.00;101036.47;4999679;28;20021;-72
2023/08/11 11:09:16;;;;;;;10.85;3.80;;;;;;;19.88;100.00;101032.03;5005955;28;20068;-72
2023/08/11 11:11:44;;;;;;;7.00;2.72;;;;;;;20.44;100.00;101145.97;5005706;28;20053;-72
2023/08/11 11:14:10;;;;;;;8.07;3.33;;;;;;;20.61;100.00;100969.16;4999252;28;20041;-71
2023/08/11 11:16:36;;;;;;;4.10;3.35;;;;;;;20.94;100.00;100884.69;5004241;28;20022;-72
2023/08/11 11:19:04;;;;;;;6.65;3.38;;;;;;;21.24;100.00;100922.72;5006113;28;20404;-72